Time;durP1;ratioP1;P1;durP2;ratioP2;P2;SDS_P1;SDS_P2;PMS_P1;PMS_P2;Temp;Humidity;BMP_temperature;BMP_pressure;BME280_temperature;BME280_humidity;BME280_pressure;Samples;Min_cycle;Max_cycle;Signal;HPM_P1;HPM_P2
2021/09/06 00:01:09;;;;;;;6.82;5.70;;;11.20;99.90;;;;;;5085302;28;20123;-66
2021/09/06 00:03:35;;;;;;;7.57;6.68;;;11.20;99.90;;;;;;5086631;28;20037;-66
2021/09/06 00:06:01;;;;;;;6.63;5.93;;;11.20;99.90;;;;;;5086446;28;20059;-66
2021/09/06 00:08:27;;;;;;;6.15;5.30;;;11.10;99.90;;;;;;5085044;28;20051;-66
2021/09/06 00:11:07;;;;;;;32.03;5.97;;;11.10;99.90;;;;;;5085235;28;20060;-66
2021/09/06 00:13:34;;;;;;;11.20;7.22;;;11.00;99.90;;;;;;5085721;28;20044;-66
2021/09/06 00:16:00;;;;;;;8.23;6.15;;;10.90;99.90;;;;;;5086664;28;20053;-66
2021/09/06 00:18:26;;;;;;;7.53;6.18;;;11.00;99.90;;;;;;5086135;28;20048;-66
2021/09/06 00:20:53;;;;;;;7.32;6.45;;;11.10;99.90;;;;;;5085750;28;20203;-66
2021/09/06 00:23:20;;;;;;;8.43;6.40;;;11.10;99.90;;;;;;5083171;28;20089;-66
2021/09/06 00:25:45;;;;;;;7.60;6.80;;;11.00;99.90;;;;;;5085955;28;20050;-66
2021/09/06 00:28:11;;;;;;;41.95;6.60;;;11.00;99.90;;;;;;5085352;28;20068;-66
2021/09/06 00:30:38;;;;;;;75.97;8.90;;;11.00;99.90;;;;;;5068329;28;20564;-66
2021/09/06 00:33:04;;;;;;;97.35;8.43;;;10.90;99.90;;;;;;5086103;28;20057;-66
2021/09/06 00:35:30;;;;;;;8.65;7.40;;;10.90;99.90;;;;;;5085715;28;20048;-65
2021/09/06 00:37:56;;;;;;;7.82;6.10;;;10.80;99.90;;;;;;5085980;28;20049;-65
2021/09/06 00:40:22;;;;;;;6.65;5.95;;;10.90;99.90;;;;;;5068234;28;20052;-66
2021/09/06 00:42:48;;;;;;;6.68;5.53;;;10.80;99.90;;;;;;5085982;28;20480;-66
2021/09/06 00:45:14;;;;;;;7.13;6.03;;;10.90;99.90;;;;;;5078578;28;20052;-66
2021/09/06 00:47:41;;;;;;;6.93;6.03;;;10.80;99.90;;;;;;5077700;28;20041;-66
2021/09/06 00:50:12;;;;;;;39.88;7.07;;;10.80;99.90;;;;;;5085558;28;20036;-65
2021/09/06 00:52:39;;;;;;;17.75;5.15;;;10.70;99.90;;;;;;5084047;28;20048;-66
2021/09/06 00:55:06;;;;;;;11.13;7.10;;;10.60;99.90;;;;;;5084144;28;20051;-66
2021/09/06 00:57:32;;;;;;;8.73;7.45;;;10.60;99.90;;;;;;5086280;28;20075;-66
2021/09/06 00:59:59;;;;;;;11.70;7.50;;;10.50;99.90;;;;;;5084172;28;20048;-66
2021/09/06 01:02:25;;;;;;;9.55;6.72;;;10.50;99.90;;;;;;5067432;28;20053;-66
2021/09/06 01:04:50;;;;;;;16.90;7.68;;;10.50;99.90;;;;;;5070917;28;20495;-66
2021/09/06 01:07:17;;;;;;;11.05;8.77;;;10.40;99.90;;;;;;5085595;28;20058;-66
2021/09/06 01:09:42;;;;;;;12.68;9.48;;;10.40;99.90;;;;;;5067293;28;20059;-65
2021/09/06 01:12:08;;;;;;;10.02;8.50;;;10.30;99.90;;;;;;5084179;28;20048;-66
2021/09/06 01:14:34;;;;;;;36.70;12.10;;;10.30;99.90;;;;;;5084279;28;20120;-66
2021/09/06 01:17:01;;;;;;;33.42;12.65;;;10.30;99.90;;;;;;5084785;28;20040;-66
2021/09/06 01:19:27;;;;;;;19.38;12.02;;;10.10;99.90;;;;;;5083846;28;20059;-66
2021/09/06 01:21:52;;;;;;;55.47;11.30;;;10.10;99.90;;;;;;5081070;28;20049;-66
2021/09/06 01:24:18;;;;;;;43.22;6.57;;;10.20;99.90;;;;;;5070690;28;20052;-66
2021/09/06 01:26:48;;;;;;;26.70;8.43;;;10.30;99.90;;;;;;5073045;28;20040;-65
2021/09/06 01:29:15;;;;;;;;;;;10.40;99.90;;;;;;5092037;28;20055;-66
2021/09/06 01:31:41;;;;;;;24.38;11.77;;;10.20;99.90;;;;;;5078562;28;19927;-66
2021/09/06 01:34:08;;;;;;;15.73;10.88;;;10.30;99.90;;;;;;5090557;28;20107;-66
2021/09/06 01:36:35;;;;;;;12.35;8.30;;;10.20;99.90;;;;;;5064209;28;20048;-66
2021/09/06 01:39:00;;;;;;;11.90;7.40;;;10.10;99.90;;;;;;5059697;28;20055;-66
2021/09/06 01:41:26;;;;;;;12.18;8.57;;;10.00;99.90;;;;;;5083483;28;20045;-66
2021/09/06 01:43:52;;;;;;;11.32;8.40;;;10.00;99.90;;;;;;5084788;28;20044;-66
2021/09/06 01:46:18;;;;;;;10.70;8.10;;;9.90;99.90;;;;;;5070691;28;20052;-66
2021/09/06 01:48:43;;;;;;;10.88;8.50;;;9.80;99.90;;;;;;5084331;28;20499;-66
2021/09/06 01:51:09;;;;;;;11.45;7.68;;;9.80;99.90;;;;;;5083375;28;20071;-66
2021/09/06 01:53:35;;;;;;;7.43;6.60;;;9.80;99.90;;;;;;5084716;28;20610;-66
2021/09/06 01:56:00;;;;;;;9.38;6.45;;;9.80;99.90;;;;;;5082890;28;20075;-67
2021/09/06 01:58:26;;;;;;;6.30;5.05;;;9.80;99.90;;;;;;5084872;28;20098;-65
2021/09/06 02:00:52;;;;;;;6.45;5.30;;;9.80;99.90;;;;;;5070640;28;20048;-65
2021/09/06 02:03:18;;;;;;;4.97;4.20;;;9.90;99.90;;;;;;5083415;28;20049;-66
2021/09/06 02:05:43;;;;;;;45.67;7.45;;;9.90;99.90;;;;;;5084348;28;20047;-66
2021/09/06 02:08:09;;;;;;;8.52;5.40;;;9.80;99.90;;;;;;5084619;28;20503;-67
2021/09/06 02:10:35;;;;;;;31.17;6.10;;;9.60;99.90;;;;;;5083738;28;20052;-66
2021/09/06 02:13:00;;;;;;;17.55;6.10;;;9.70;99.90;;;;;;5085146;28;20079;-67
2021/09/06 02:15:26;;;;;;;8.75;6.40;;;9.70;99.90;;;;;;5083014;28;20040;-67
2021/09/06 02:17:52;;;;;;;28.80;8.45;;;9.70;99.90;;;;;;5083086;28;20060;-66
2021/09/06 02:20:17;;;;;;;13.52;10.77;;;9.80;99.90;;;;;;5082950;28;20045;-66
2021/09/06 02:22:43;;;;;;;15.20;11.15;;;9.70;99.90;;;;;;5084468;28;20048;-67
2021/09/06 02:25:09;;;;;;;7.80;6.40;;;9.80;99.90;;;;;;5083194;28;20051;-66
2021/09/06 02:27:35;;;;;;;8.63;6.60;;;9.70;99.90;;;;;;5086580;28;20100;-66
2021/09/06 02:30:02;;;;;;;37.88;7.57;;;9.70;99.90;;;;;;5083478;28;20049;-66
2021/09/06 02:32:27;;;;;;;7.85;6.78;;;9.80;99.90;;;;;;5083007;28;20052;-67
2021/09/06 02:34:53;;;;;;;8.23;7.03;;;9.80;99.90;;;;;;5083330;28;20076;-66
2021/09/06 02:37:19;;;;;;;7.22;6.43;;;9.90;99.90;;;;;;5073705;28;20041;-66
2021/09/06 02:39:44;;;;;;;20.80;6.15;;;9.90;99.90;;;;;;5083783;28;20044;-66
2021/09/06 02:42:10;;;;;;;15.20;6.40;;;10.00;99.90;;;;;;5082130;28;20527;-66
2021/09/06 02:44:36;;;;;;;7.47;5.32;;;10.00;99.90;;;;;;5086859;28;20115;-66
2021/09/06 02:47:02;;;;;;;6.90;5.63;;;9.90;99.90;;;;;;5086724;28;20059;-67
2021/09/06 02:49:27;;;;;;;5.38;4.88;;;9.90;99.90;;;;;;5086607;28;20047;-66
2021/09/06 02:51:53;;;;;;;5.15;4.65;;;9.80;99.90;;;;;;5086299;28;20407;-66
2021/09/06 02:54:19;;;;;;;4.80;4.40;;;9.80;99.90;;;;;;5086549;28;20114;-66
2021/09/06 02:56:44;;;;;;;5.05;4.55;;;9.70;99.90;;;;;;5088195;28;20040;-67
2021/09/06 02:59:11;;;;;;;4.75;4.30;;;9.70;99.90;;;;;;5088080;28;20052;-66
2021/09/06 03:01:36;;;;;;;5.45;4.95;;;9.60;99.90;;;;;;5087876;28;20044;-66
2021/09/06 03:04:02;;;;;;;5.57;4.93;;;9.50;99.90;;;;;;5088409;28;20040;-67
2021/09/06 03:06:28;;;;;;;4.80;4.40;;;9.50;99.90;;;;;;5086522;28;20044;-66
2021/09/06 03:08:54;;;;;;;5.65;5.05;;;9.50;99.90;;;;;;5086213;28;20104;-67
2021/09/06 03:11:24;;;;;;;11.43;5.15;;;9.50;99.90;;;;;;5086839;28;20055;-66
2021/09/06 03:13:53;;;;;;;10.88;5.90;;;9.50;99.90;;;;;;5087519;28;20040;-66
2021/09/06 03:16:21;;;;;;;7.05;6.32;;;9.30;99.90;;;;;;5075754;28;20056;-67
2021/09/06 03:18:47;;;;;;;6.13;5.50;;;9.30;99.90;;;;;;5084917;28;20032;-66
2021/09/06 03:21:13;;;;;;;9.38;7.35;;;9.30;99.90;;;;;;5085922;28;20055;-67
2021/09/06 03:23:39;;;;;;;16.85;10.18;;;9.20;99.90;;;;;;5068596;28;20073;-66
2021/09/06 03:26:05;;;;;;;47.67;14.57;;;9.20;99.90;;;;;;5086457;28;20044;-67
2021/09/06 03:28:30;;;;;;;152.57;16.98;;;9.10;99.90;;;;;;5088280;28;20067;-67
2021/09/06 03:30:56;;;;;;;109.43;13.18;;;9.10;99.90;;;;;;5085887;28;20040;-67
2021/09/06 03:33:22;;;;;;;51.78;11.15;;;9.20;99.90;;;;;;5085807;28;20048;-66
2021/09/06 03:35:47;;;;;;;13.38;9.55;;;9.20;99.90;;;;;;5086161;28;20051;-66
2021/09/06 03:38:13;;;;;;;20.65;10.55;;;9.30;99.90;;;;;;5087265;28;20044;-67
2021/09/06 03:40:40;;;;;;;25.90;8.95;;;9.30;99.90;;;;;;5087486;28;20047;-66
2021/09/06 03:43:06;;;;;;;92.07;12.20;;;9.30;99.90;;;;;;5086206;28;20048;-67
2021/09/06 03:45:32;;;;;;;112.97;12.75;;;9.30;99.90;;;;;;5085874;28;20145;-66
2021/09/06 03:47:57;;;;;;;91.55;12.10;;;9.20;99.90;;;;;;5086020;28;20508;-66
2021/09/06 03:50:23;;;;;;;19.92;8.60;;;9.00;99.90;;;;;;5087339;28;20111;-66
2021/09/06 03:52:49;;;;;;;8.93;8.07;;;9.10;99.90;;;;;;5085454;28;20150;-66
2021/09/06 03:55:15;;;;;;;41.03;10.02;;;9.20;99.90;;;;;;5085540;28;20133;-66
2021/09/06 03:57:41;;;;;;;257.08;17.73;;;9.20;99.90;;;;;;5086289;28;20050;-68
2021/09/06 04:00:07;;;;;;;247.05;18.08;;;9.20;99.90;;;;;;5087402;28;20058;-66
2021/09/06 04:02:33;;;;;;;297.40;19.98;;;9.30;99.90;;;;;;5086657;28;20044;-66
2021/09/06 04:04:59;;;;;;;259.88;18.20;;;9.30;99.90;;;;;;5085351;28;20107;-66
2021/09/06 04:07:27;;;;;;;284.70;19.90;;;9.30;99.90;;;;;;5086043;28;20041;-66
2021/09/06 04:09:53;;;;;;;168.68;13.57;;;9.30;99.90;;;;;;5068465;28;20048;-67
2021/09/06 04:12:20;;;;;;;88.80;9.45;;;9.20;99.90;;;;;;5080386;28;20048;-66
2021/09/06 04:14:45;;;;;;;134.30;13.25;;;9.10;99.90;;;;;;5078548;28;20059;-66
2021/09/06 04:17:11;;;;;;;18.85;8.93;;;9.10;99.90;;;;;;5086929;28;20040;-66
2021/09/06 04:19:37;;;;;;;29.52;8.65;;;9.10;99.90;;;;;;5085635;28;20036;-66
2021/09/06 04:22:04;;;;;;;62.70;10.25;;;9.20;99.90;;;;;;5084913;28;20045;-66
2021/09/06 04:24:30;;;;;;;208.65;16.70;;;9.20;99.90;;;;;;5085887;28;20123;-66
2021/09/06 04:26:55;;;;;;;198.20;17.10;;;9.20;99.90;;;;;;5087057;28;20091;-67
2021/09/06 04:29:22;;;;;;;199.20;17.80;;;9.20;99.90;;;;;;5084516;28;20052;-66
2021/09/06 04:31:48;;;;;;;82.78;11.43;;;9.30;99.90;;;;;;5081726;28;20050;-66
2021/09/06 04:34:14;;;;;;;103.28;11.82;;;9.30;99.90;;;;;;5076743;28;20051;-66
2021/09/06 04:36:40;;;;;;;122.55;11.20;;;9.20;99.90;;;;;;5086459;28;20056;-66
2021/09/06 04:39:06;;;;;;;76.90;10.23;;;9.10;99.90;;;;;;5085600;28;20036;-66
2021/09/06 04:41:32;;;;;;;24.15;8.70;;;9.00;99.90;;;;;;5085963;28;20044;-67
2021/09/06 04:43:58;;;;;;;55.75;9.00;;;9.00;99.90;;;;;;5083728;28;20052;-67
2021/09/06 04:46:23;;;;;;;60.95;10.70;;;9.00;99.90;;;;;;5081952;28;20051;-66
2021/09/06 04:48:49;;;;;;;38.58;7.22;;;9.10;99.90;;;;;;5067123;28;20487;-66
2021/09/06 04:51:15;;;;;;;66.40;8.98;;;9.00;99.90;;;;;;5073375;28;20044;-69
2021/09/06 04:53:42;;;;;;;94.47;12.43;;;8.90;99.90;;;;;;5079725;28;20052;-68
2021/09/06 04:56:10;;;;;;;38.97;9.25;;;8.90;99.90;;;;;;5083529;28;20037;-68
2021/09/06 04:58:36;;;;;;;9.32;8.45;;;9.00;99.90;;;;;;5080537;28;20257;-68
2021/09/06 05:01:02;;;;;;;20.23;9.23;;;9.10;99.90;;;;;;5065154;28;20058;-68
2021/09/06 05:03:29;;;;;;;9.93;9.05;;;9.20;99.90;;;;;;5079371;28;20103;-68
2021/09/06 05:05:57;;;;;;;12.85;8.18;;;9.30;99.90;;;;;;5081285;28;20049;-67
2021/09/06 05:08:23;;;;;;;7.50;6.70;;;9.30;99.90;;;;;;5079782;28;20056;-68
2021/09/06 05:10:49;;;;;;;7.38;6.18;;;9.20;99.90;;;;;;5082010;28;20136;-68
2021/09/06 05:13:15;;;;;;;6.50;5.90;;;9.10;99.90;;;;;;5081779;28;20045;-68
2021/09/06 05:15:40;;;;;;;7.63;6.93;;;9.10;99.90;;;;;;5080668;28;20049;-68
2021/09/06 05:18:06;;;;;;;7.65;7.05;;;9.10;99.90;;;;;;5080850;28;20439;-69
2021/09/06 05:20:32;;;;;;;8.70;7.90;;;9.10;99.90;;;;;;5079610;28;20085;-69
2021/09/06 05:22:57;;;;;;;8.85;8.05;;;9.10;99.90;;;;;;5082969;28;20045;-68
2021/09/06 05:25:23;;;;;;;8.68;7.97;;;9.20;99.90;;;;;;5083144;28;20424;-67
2021/09/06 05:27:49;;;;;;;61.80;10.38;;;9.20;99.90;;;;;;5083679;28;20051;-67
2021/09/06 05:30:15;;;;;;;60.80;11.23;;;9.20;99.90;;;;;;5079524;28;20054;-67
2021/09/06 05:32:40;;;;;;;69.93;11.45;;;9.20;99.90;;;;;;5065013;28;20071;-68
2021/09/06 05:35:07;;;;;;;89.30;12.68;;;9.10;99.90;;;;;;5083135;28;20043;-68
2021/09/06 05:37:33;;;;;;;50.10;11.27;;;9.10;99.90;;;;;;5081139;28;20064;-68
2021/09/06 05:39:58;;;;;;;39.20;11.02;;;9.20;99.90;;;;;;5080624;28;20519;-68
2021/09/06 05:42:24;;;;;;;54.22;11.57;;;9.30;99.90;;;;;;5082533;28;20099;-68
2021/09/06 05:44:50;;;;;;;88.97;13.00;;;9.30;99.90;;;;;;5082492;28;20078;-67
2021/09/06 05:47:19;;;;;;;83.00;13.93;;;9.30;99.90;;;;;;5082418;28;20088;-68
2021/09/06 05:49:45;;;;;;;92.35;15.20;;;9.30;99.90;;;;;;5071886;28;20120;-68
2021/09/06 05:52:10;;;;;;;65.35;13.98;;;9.30;99.90;;;;;;5082960;28;20040;-68
2021/09/06 05:54:36;;;;;;;46.80;13.65;;;9.40;99.90;;;;;;5084631;28;20075;-68
2021/09/06 05:57:02;;;;;;;65.55;13.95;;;9.50;99.90;;;;;;5084519;28;20135;-67
2021/09/06 05:59:28;;;;;;;15.93;12.15;;;9.60;99.90;;;;;;5063588;28;20056;-68
2021/09/06 06:01:54;;;;;;;12.88;11.68;;;9.60;99.90;;;;;;5080665;28;20052;-68
2021/09/06 06:04:19;;;;;;;65.68;13.88;;;9.70;99.90;;;;;;5062441;28;20065;-67
2021/09/06 06:06:45;;;;;;;18.42;11.60;;;9.80;99.90;;;;;;5053668;28;20044;-67
2021/09/06 06:09:11;;;;;;;20.05;12.32;;;9.90;99.90;;;;;;5078087;28;20044;-67
2021/09/06 06:11:38;;;;;;;18.35;10.75;;;9.90;99.90;;;;;;5095134;28;20054;-67
2021/09/06 06:14:05;;;;;;;43.30;12.60;;;10.00;99.90;;;;;;5086135;28;20150;-67
2021/09/06 06:16:31;;;;;;;54.47;12.50;;;10.10;99.90;;;;;;5086677;28;20097;-67
2021/09/06 06:18:57;;;;;;;53.15;12.23;;;10.10;99.90;;;;;;5084323;28;20071;-67
2021/09/06 06:21:23;;;;;;;36.53;11.35;;;10.10;99.90;;;;;;5090892;28;20546;-67
2021/09/06 06:23:49;;;;;;;47.80;12.10;;;10.10;99.90;;;;;;5099473;28;20115;-67
2021/09/06 06:26:15;;;;;;;23.48;11.73;;;10.20;99.90;;;;;;5079648;28;20073;-68
2021/09/06 06:28:41;;;;;;;15.25;11.30;;;10.20;99.90;;;;;;5104771;28;20299;-68
2021/09/06 06:31:07;;;;;;;12.73;11.40;;;10.20;99.90;;;;;;5080754;28;20049;-67
2021/09/06 06:33:33;;;;;;;12.48;11.05;;;10.30;99.90;;;;;;5096862;28;20112;-68
2021/09/06 06:36:00;;;;;;;13.77;12.40;;;10.40;99.90;;;;;;5075209;28;20040;-68
2021/09/06 06:38:27;;;;;;;16.27;14.07;;;10.50;99.90;;;;;;5085197;28;20056;-68
2021/09/06 06:40:53;;;;;;;13.45;12.25;;;10.60;99.90;;;;;;5085371;28;20118;-68
2021/09/06 06:43:18;;;;;;;15.43;13.93;;;10.70;99.90;;;;;;5058292;28;20044;-68
2021/09/06 06:45:44;;;;;;;15.20;13.77;;;10.80;99.90;;;;;;5096863;28;20051;-68
2021/09/06 06:48:10;;;;;;;15.27;13.95;;;10.90;99.90;;;;;;5077770;28;20139;-67
2021/09/06 06:50:36;;;;;;;17.10;15.50;;;11.00;99.90;;;;;;5067845;28;20052;-67
2021/09/06 06:53:02;;;;;;;18.88;16.88;;;11.10;99.90;;;;;;5106741;28;20758;-68
2021/09/06 06:55:27;;;;;;;18.70;16.90;;;11.20;99.90;;;;;;5072752;28;20049;-68
2021/09/06 06:57:53;;;;;;;18.40;16.67;;;11.30;99.90;;;;;;5074774;28;20151;-67
2021/09/06 07:00:19;;;;;;;19.42;17.40;;;11.40;99.90;;;;;;5070070;28;20041;-68
2021/09/06 07:02:45;;;;;;;19.25;17.30;;;11.50;99.90;;;;;;5086698;28;20055;-68
2021/09/06 07:05:11;;;;;;;19.50;17.60;;;11.60;99.90;;;;;;5083415;28;20471;-67
2021/09/06 07:07:37;;;;;;;22.38;18.20;;;11.70;99.90;;;;;;5112665;28;20048;-68
2021/09/06 07:10:04;;;;;;;22.45;20.05;;;11.90;99.90;;;;;;5128712;27;20048;-67
2021/09/06 07:12:29;;;;;;;20.83;18.83;;;12.10;99.90;;;;;;5104609;27;20067;-68
2021/09/06 07:14:55;;;;;;;21.02;18.92;;;12.20;99.90;;;;;;5086076;28;20036;-68
2021/09/06 07:17:21;;;;;;;24.65;22.05;;;12.30;99.90;;;;;;5075872;28;20064;-67
2021/09/06 07:19:46;;;;;;;23.52;21.08;;;12.50;99.90;;;;;;5081093;28;20057;-67
2021/09/06 07:22:12;;;;;;;26.88;23.98;;;12.60;99.90;;;;;;5054121;28;20052;-68
2021/09/06 07:24:38;;;;;;;27.25;23.95;;;12.80;99.90;;;;;;5070426;28;20052;-68
2021/09/06 07:27:04;;;;;;;28.58;25.13;;;12.90;99.90;;;;;;5074135;28;20052;-68
2021/09/06 07:29:30;;;;;;;31.10;23.17;;;13.10;99.90;;;;;;5072497;28;20084;-68
2021/09/06 07:31:55;;;;;;;28.35;23.45;;;13.20;99.90;;;;;;5085769;28;20078;-67
2021/09/06 07:34:21;;;;;;;26.75;23.17;;;13.30;99.90;;;;;;5106265;28;20587;-67
2021/09/06 07:36:47;;;;;;;26.85;21.08;;;13.40;99.90;;;;;;5062415;28;20743;-67
2021/09/06 07:39:16;;;;;;;34.03;26.75;;;13.50;99.90;;;;;;5079662;28;20041;-68
2021/09/06 07:41:43;;;;;;;29.77;23.83;;;13.70;99.90;;;;;;5085190;28;20055;-67
2021/09/06 07:44:08;;;;;;;33.13;25.17;;;13.80;99.90;;;;;;5094214;28;20053;-68
2021/09/06 07:46:34;;;;;;;28.63;21.85;;;13.90;99.90;;;;;;5056557;28;20543;-68
2021/09/06 07:49:00;;;;;;;33.03;24.17;;;14.00;99.90;;;;;;5065783;28;20060;-68
2021/09/06 07:51:25;;;;;;;30.65;21.42;;;14.10;99.90;;;;;;5058285;28;21105;-68
2021/09/06 07:53:51;;;;;;;28.60;20.42;;;14.30;99.90;;;;;;5073481;28;20083;-68
2021/09/06 07:56:17;;;;;;;23.73;18.42;;;14.40;99.90;;;;;;5075397;28;20036;-68
2021/09/06 07:58:43;;;;;;;23.58;17.33;;;14.40;99.90;;;;;;5093965;28;20080;-68
2021/09/06 08:01:08;;;;;;;23.70;17.75;;;14.50;99.90;;;;;;5068214;28;20040;-68
2021/09/06 08:03:34;;;;;;;22.55;16.55;;;14.50;99.90;;;;;;5094635;28;20052;-68
2021/09/06 08:06:00;;;;;;;25.25;17.88;;;14.50;99.90;;;;;;5078398;28;20068;-68
2021/09/06 08:08:25;;;;;;;23.45;16.25;;;14.70;99.90;;;;;;5069707;28;20048;-68
2021/09/06 08:10:51;;;;;;;22.90;15.57;;;14.80;99.90;;;;;;5068538;28;20044;-68
2021/09/06 08:13:17;;;;;;;22.23;15.80;;;14.80;99.90;;;;;;5104763;28;20062;-68
2021/09/06 08:15:42;;;;;;;21.45;14.70;;;14.90;99.90;;;;;;5062149;28;20079;-68
2021/09/06 08:18:09;;;;;;;24.25;15.65;;;14.90;99.90;;;;;;5088298;28;20515;-68
2021/09/06 08:20:35;;;;;;;21.58;15.40;;;15.00;99.90;;;;;;5073518;28;20056;-68
2021/09/06 08:23:01;;;;;;;19.85;15.30;;;15.10;99.90;;;;;;5095071;28;20048;-68
2021/09/06 08:25:27;;;;;;;20.80;15.15;;;15.10;99.90;;;;;;5075269;28;20469;-69
2021/09/06 08:27:52;;;;;;;20.23;14.98;;;15.10;99.90;;;;;;5050715;28;20729;-69
2021/09/06 08:30:18;;;;;;;20.95;14.90;;;15.20;99.90;;;;;;5079915;28;20107;-69
2021/09/06 08:32:44;;;;;;;19.92;14.43;;;15.20;99.90;;;;;;5069267;28;20577;-69
2021/09/06 08:35:11;;;;;;;22.45;15.82;;;15.20;99.90;;;;;;5046802;28;20056;-69
2021/09/06 08:37:38;;;;;;;20.38;14.75;;;15.30;99.90;;;;;;5057572;28;20054;-69
2021/09/06 08:40:06;;;;;;;22.17;15.68;;;15.40;99.90;;;;;;5070558;28;20055;-69
2021/09/06 08:42:32;;;;;;;23.70;16.42;;;15.40;99.90;;;;;;5068221;28;20129;-69
2021/09/06 08:44:57;;;;;;;22.42;16.02;;;15.50;99.90;;;;;;5076936;28;20052;-69
2021/09/06 08:47:24;;;;;;;21.73;15.93;;;15.50;99.90;;;;;;5069734;28;20066;-69
2021/09/06 08:49:51;;;;;;;18.55;14.77;;;15.50;99.90;;;;;;5058503;28;20078;-68
2021/09/06 08:52:17;;;;;;;20.92;13.82;;;15.60;99.90;;;;;;5080751;28;20048;-68
2021/09/06 08:54:43;;;;;;;19.73;15.02;;;15.70;99.90;;;;;;5093759;28;20044;-69
2021/09/06 08:57:09;;;;;;;20.95;14.27;;;15.80;99.90;;;;;;5079041;28;20067;-70
2021/09/06 08:59:35;;;;;;;21.92;14.40;;;16.00;99.90;;;;;;5087513;28;20048;-70
2021/09/06 09:02:00;;;;;;;21.20;15.65;;;16.10;99.90;;;;;;5071602;28;20119;-69
2021/09/06 09:04:29;;;;;;;21.92;16.00;;;16.20;99.90;;;;;;5112908;28;20036;-69
2021/09/06 09:06:57;;;;;;;19.10;13.88;;;16.40;99.90;;;;;;5058407;28;20063;-69
2021/09/06 09:09:24;;;;;;;19.35;13.23;;;16.50;99.90;;;;;;5088788;28;20108;-69
2021/09/06 09:12:20;;;;;;;21.27;14.77;;;16.60;99.90;;;;;;5074903;28;20044;-69
2021/09/06 09:14:55;;;;;;;20.40;14.18;;;16.70;99.90;;;;;;5084248;28;20360;-69
2021/09/06 09:17:22;;;;;;;24.17;14.85;;;16.80;99.90;;;;;;5062005;28;20050;-69
2021/09/06 09:19:48;;;;;;;16.70;11.48;;;16.80;99.90;;;;;;5084196;28;20053;-69
2021/09/06 09:22:28;;;;;;;17.83;13.05;;;16.80;99.90;;;;;;5082458;27;20109;-69
2021/09/06 09:25:04;;;;;;;24.20;13.45;;;16.90;99.90;;;;;;5086874;28;20072;-70
2021/09/06 09:27:36;;;;;;;18.50;13.30;;;17.00;99.90;;;;;;5075453;28;20051;-70
2021/09/06 09:30:05;;;;;;;16.90;13.32;;;17.10;99.90;;;;;;5078754;28;20048;-70
2021/09/06 09:32:36;;;;;;;18.35;12.68;;;17.10;99.90;;;;;;5071922;28;20062;-69
2021/09/06 09:35:07;;;;;;;16.27;12.07;;;17.10;99.90;;;;;;5070916;28;20067;-69
2021/09/06 09:37:33;;;;;;;14.30;11.05;;;17.10;99.90;;;;;;5079359;28;20046;-67
2021/09/06 09:40:03;;;;;;;16.08;11.18;;;17.10;99.90;;;;;;5065401;28;20150;-68
2021/09/06 09:42:29;;;;;;;15.07;11.73;;;17.10;99.90;;;;;;5075639;28;20119;-69
2021/09/06 09:44:59;;;;;;;18.65;12.93;;;17.10;99.90;;;;;;5094838;28;20125;-69
2021/09/06 09:47:26;;;;;;;17.75;12.48;;;17.10;99.90;;;;;;5086567;28;20055;-69
2021/09/06 09:49:57;;;;;;;16.58;11.52;;;17.20;99.90;;;;;;5078582;28;20056;-69
2021/09/06 09:52:23;;;;;;;18.75;11.82;;;17.20;99.90;;;;;;5083484;28;20075;-69
2021/09/06 09:54:54;;;;;;;16.25;11.48;;;17.20;99.90;;;;;;5094368;28;20056;-69
2021/09/06 09:57:25;;;;;;;16.23;10.93;;;17.40;99.90;;;;;;5082425;28;20576;-69
2021/09/06 09:59:52;;;;;;;15.15;10.45;;;17.40;99.90;;;;;;5081861;28;20076;-69
2021/09/06 10:02:25;;;;;;;16.25;10.55;;;17.40;99.90;;;;;;5065820;28;20077;-69
2021/09/06 10:04:53;;;;;;;14.25;10.60;;;17.50;99.90;;;;;;5093792;28;20116;-69
2021/09/06 10:07:20;;;;;;;13.00;8.32;;;17.60;99.90;;;;;;5072729;28;20069;-69
2021/09/06 10:09:48;;;;;;;11.65;9.30;;;17.60;99.90;;;;;;5073185;28;20420;-69
2021/09/06 10:12:19;;;;;;;15.70;9.60;;;17.70;99.90;;;;;;5072661;28;20079;-69
2021/09/06 10:15:05;;;;;;;12.68;9.43;;;17.80;99.90;;;;;;5086454;28;20045;-69
2021/09/06 10:17:38;;;;;;;13.02;9.15;;;17.90;99.90;;;;;;5075656;28;20055;-69
2021/09/06 10:20:17;;;;;;;12.70;9.48;;;17.90;99.90;;;;;;5082507;28;20044;-69
2021/09/06 10:22:45;;;;;;;14.07;9.27;;;18.10;99.90;;;;;;5071744;28;20045;-69
2021/09/06 10:25:15;;;;;;;12.32;9.10;;;18.10;99.90;;;;;;5063281;28;20103;-69
2021/09/06 10:27:53;;;;;;;13.30;9.75;;;18.10;99.90;;;;;;5085052;28;20093;-69
2021/09/06 10:30:19;;;;;;;11.77;7.75;;;18.20;99.90;;;;;;5101495;28;20044;-70
2021/09/06 10:32:49;;;;;;;12.27;9.30;;;18.20;99.90;;;;;;5088527;28;20069;-69
2021/09/06 10:35:20;;;;;;;15.75;9.18;;;18.40;99.90;;;;;;5105441;28;20495;-69
2021/09/06 10:37:47;;;;;;;11.40;7.95;;;18.50;99.90;;;;;;5091184;28;20069;-69
2021/09/06 10:40:25;;;;;;;14.40;10.02;;;18.60;99.90;;;;;;5105158;28;20051;-70
2021/09/06 10:42:50;;;;;;;13.05;9.50;;;19.00;99.90;;;;;;5095920;28;20052;-70
2021/09/06 10:45:17;;;;;;;12.75;8.93;;;19.10;99.90;;;;;;5103125;28;20044;-70
2021/09/06 10:47:43;;;;;;;10.68;7.70;;;19.20;99.90;;;;;;5095395;28;20582;-70
2021/09/06 10:50:21;;;;;;;11.40;8.20;;;19.20;99.90;;;;;;5072153;28;20110;-70
2021/09/06 10:52:49;;;;;;;10.00;7.85;;;19.30;99.90;;;;;;5075244;28;20055;-70
2021/09/06 10:55:17;;;;;;;10.07;8.00;;;19.30;99.90;;;;;;5082204;28;20033;-69
2021/09/06 10:57:46;;;;;;;11.20;8.07;;;19.50;99.90;;;;;;5074776;28;20115;-69
2021/09/06 11:00:20;;;;;;;12.38;8.50;;;19.60;99.90;;;;;;5084224;28;20091;-69
2021/09/06 11:02:49;;;;;;;11.75;7.18;;;19.70;99.90;;;;;;5071593;28;20056;-69
2021/09/06 11:05:25;;;;;;;11.07;8.05;;;19.80;99.90;;;;;;5086529;28;20079;-68
2021/09/06 11:08:02;;;;;;;12.30;7.32;;;19.90;99.90;;;;;;5076676;28;20052;-68
2021/09/06 11:10:28;;;;;;;12.80;8.07;;;20.00;99.90;;;;;;5086296;28;20048;-68
2021/09/06 11:12:56;;;;;;;9.43;7.25;;;20.10;99.90;;;;;;5076622;28;20059;-69
2021/09/06 11:15:27;;;;;;;10.10;7.85;;;20.20;99.90;;;;;;5085198;28;20047;-69
2021/09/06 11:18:04;;;;;;;10.90;7.85;;;20.40;99.90;;;;;;5078735;28;20063;-69
2021/09/06 11:20:33;;;;;;;10.98;7.25;;;20.50;99.90;;;;;;5084421;28;20051;-69
2021/09/06 11:23:04;;;;;;;10.33;7.47;;;20.50;99.90;;;;;;5079073;28;20082;-69
2021/09/06 11:25:31;;;;;;;9.38;7.43;;;20.60;99.90;;;;;;5084528;28;20074;-69
2021/09/06 11:28:10;;;;;;;9.43;7.25;;;20.70;99.90;;;;;;5079319;28;20368;-68
2021/09/06 11:30:40;;;;;;;8.23;6.47;;;20.80;99.90;;;;;;5073020;28;20051;-68
2021/09/06 11:33:06;;;;;;;7.32;6.35;;;20.80;99.90;;;;;;5071393;28;20310;-68
2021/09/06 11:35:37;;;;;;;11.02;7.18;;;20.80;99.90;;;;;;5082612;28;20048;-69
2021/09/06 11:38:03;;;;;;;9.25;6.63;;;20.90;99.90;;;;;;5071943;28;20052;-69
2021/09/06 11:40:29;;;;;;;9.23;6.75;;;20.80;99.90;;;;;;5071042;28;20055;-69
2021/09/06 11:42:57;;;;;;;8.05;6.80;;;20.80;99.90;;;;;;5067047;28;20267;-69
2021/09/06 11:45:23;;;;;;;8.18;5.78;;;20.80;99.90;;;;;;5084425;28;20056;-69
2021/09/06 11:47:49;;;;;;;9.35;5.35;;;20.80;99.90;;;;;;5101188;27;20288;-68
2021/09/06 11:50:16;;;;;;;7.95;5.85;;;20.80;99.90;;;;;;5088489;28;20153;-68
2021/09/06 11:52:44;;;;;;;8.30;5.70;;;20.70;99.90;;;;;;5087209;28;20601;-68
2021/09/06 11:55:16;;;;;;;7.47;6.05;;;20.80;99.90;;;;;;5097270;28;20527;-68
2021/09/06 11:57:42;;;;;;;7.75;6.03;;;20.80;99.90;;;;;;5071146;28;20097;-69
2021/09/06 12:00:10;;;;;;;7.35;5.75;;;20.80;99.90;;;;;;5079503;28;20063;-68
2021/09/06 12:02:47;;;;;;;8.75;5.90;;;20.80;99.90;;;;;;5064462;28;20052;-68
2021/09/06 12:05:15;;;;;;;7.28;5.85;;;20.80;99.90;;;;;;5091069;28;20080;-68
2021/09/06 12:07:59;;;;;;;8.25;5.70;;;20.80;99.90;;;;;;5059339;28;20068;-69
2021/09/06 12:10:29;;;;;;;9.13;6.15;;;20.90;99.90;;;;;;5056642;28;20328;-67
2021/09/06 12:13:24;;;;;;;7.88;6.03;;;20.90;99.90;;;;;;5066368;28;20052;-68
2021/09/06 12:15:58;;;;;;;9.50;6.30;;;20.90;99.90;;;;;;5001800;28;20046;-68
2021/09/06 12:18:34;;;;;;;9.45;6.13;;;21.00;99.90;;;;;;5001634;28;20092;-68
2021/09/06 12:21:06;;;;;;;6.80;5.63;;;20.90;99.90;;;;;;4983056;28;20065;-68
2021/09/06 12:23:34;;;;;;;7.88;5.82;;;20.90;99.90;;;;;;4984531;28;20054;-68
2021/09/06 12:26:00;;;;;;;8.57;5.63;;;20.90;99.90;;;;;;4999484;28;20050;-68
2021/09/06 12:28:26;;;;;;;7.95;5.55;;;21.00;99.90;;;;;;4972875;28;20074;-68
2021/09/06 12:31:05;;;;;;;8.35;6.00;;;21.00;99.90;;;;;;4996641;28;20054;-68
2021/09/06 12:33:31;;;;;;;8.50;5.80;;;21.10;99.90;;;;;;4970824;28;20057;-68
2021/09/06 12:36:01;;;;;;;9.13;6.07;;;21.20;99.90;;;;;;4997194;28;20050;-68
2021/09/06 12:38:29;;;;;;;10.43;5.97;;;21.40;99.90;;;;;;4996947;28;20046;-68